sensor_id;sensor_type;location;lat;lon;timestamp;temperature;humidity
37446;DHT22;23307;51.136;14.942;2023-08-06T00:00:15;17.80;99.90
37446;DHT22;23307;51.136;14.942;2023-08-06T00:02:41;17.70;99.90
37446;DHT22;23307;51.136;14.942;2023-08-06T00:05:07;17.70;99.90
37446;DHT22;23307;51.136;14.942;2023-08-06T00:07:32;17.60;99.90
37446;DHT22;23307;51.136;14.942;2023-08-06T00:09:58;17.50;99.90
37446;DHT22;23307;51.136;14.942;2023-08-06T00:12:23;17.50;99.90
37446;DHT22;23307;51.136;14.942;2023-08-06T00:14:50;17.50;99.90
37446;DHT22;23307;51.136;14.942;2023-08-06T00:17:16;17.40;99.90
37446;DHT22;23307;51.136;14.942;2023-08-06T00:19:42;17.30;99.90
37446;DHT22;23307;51.136;14.942;2023-08-06T00:22:07;17.30;99.90
37446;DHT22;23307;51.136;14.942;2023-08-06T00:24:33;17.20;99.90
37446;DHT22;23307;51.136;14.942;2023-08-06T00:26:59;17.30;99.90
37446;DHT22;23307;51.136;14.942;2023-08-06T00:29:24;17.30;99.90
37446;DHT22;23307;51.136;14.942;2023-08-06T00:31:50;17.20;99.90
37446;DHT22;23307;51.136;14.942;2023-08-06T00:34:15;17.20;99.90
37446;DHT22;23307;51.136;14.942;2023-08-06T00:36:41;17.20;99.90
37446;DHT22;23307;51.136;14.942;2023-08-06T00:39:06;17.10;99.90
37446;DHT22;23307;51.136;14.942;2023-08-06T00:41:32;17.10;99.90
37446;DHT22;23307;51.136;14.942;2023-08-06T00:43:58;17.00;99.90
37446;DHT22;23307;51.136;14.942;2023-08-06T00:46:23;17.00;99.90
37446;DHT22;23307;51.136;14.942;2023-08-06T00:48:50;17.00;99.90
37446;DHT22;23307;51.136;14.942;2023-08-06T00:51:16;17.00;99.90
37446;DHT22;23307;51.136;14.942;2023-08-06T00:53:42;16.90;99.90
37446;DHT22;23307;51.136;14.942;2023-08-06T00:56:09;16.90;99.90
37446;DHT22;23307;51.136;14.942;2023-08-06T00:58:35;16.90;99.90
37446;DHT22;23307;51.136;14.942;2023-08-06T01:01:01;16.80;99.90
37446;DHT22;23307;51.136;14.942;2023-08-06T01:03:27;16.80;99.90
37446;DHT22;23307;51.136;14.942;2023-08-06T01:05:53;16.80;99.90
37446;DHT22;23307;51.136;14.942;2023-08-06T01:14:02;16.80;99.90
37446;DHT22;23307;51.136;14.942;2023-08-06T01:16:30;16.70;99.90
37446;DHT22;23307;51.136;14.942;2023-08-06T01:18:58;16.70;99.90
37446;DHT22;23307;51.136;14.942;2023-08-06T01:21:23;16.70;99.90
37446;DHT22;23307;51.136;14.942;2023-08-06T01:23:49;16.70;99.90
37446;DHT22;23307;51.136;14.942;2023-08-06T01:26:26;16.70;99.90
37446;DHT22;23307;51.136;14.942;2023-08-06T01:29:10;16.70;99.90
37446;DHT22;23307;51.136;14.942;2023-08-06T01:31:38;16.60;99.90
37446;DHT22;23307;51.136;14.942;2023-08-06T01:34:07;16.50;99.90
37446;DHT22;23307;51.136;14.942;2023-08-06T01:36:35;16.50;99.90
37446;DHT22;23307;51.136;14.942;2023-08-06T01:39:00;16.50;99.90
37446;DHT22;23307;51.136;14.942;2023-08-06T01:41:26;16.50;99.90
37446;DHT22;23307;51.136;14.942;2023-08-06T01:43:51;16.50;99.90
37446;DHT22;23307;51.136;14.942;2023-08-06T01:46:17;16.50;99.90
37446;DHT22;23307;51.136;14.942;2023-08-06T01:48:43;16.50;99.90
37446;DHT22;23307;51.136;14.942;2023-08-06T01:51:08;16.50;99.90
37446;DHT22;23307;51.136;14.942;2023-08-06T01:53:34;16.50;99.90
37446;DHT22;23307;51.136;14.942;2023-08-06T01:55:59;16.50;99.90
37446;DHT22;23307;51.136;14.942;2023-08-06T01:58:25;16.50;99.90
37446;DHT22;23307;51.136;14.942;2023-08-06T02:00:51;16.50;99.90
37446;DHT22;23307;51.136;14.942;2023-08-06T02:03:16;16.50;99.90
37446;DHT22;23307;51.136;14.942;2023-08-06T02:05:42;16.50;99.90
37446;DHT22;23307;51.136;14.942;2023-08-06T02:08:07;16.50;99.90
37446;DHT22;23307;51.136;14.942;2023-08-06T02:10:33;16.40;99.90
37446;DHT22;23307;51.136;14.942;2023-08-06T02:12:59;16.40;99.90
37446;DHT22;23307;51.136;14.942;2023-08-06T02:15:25;16.40;99.90
37446;DHT22;23307;51.136;14.942;2023-08-06T02:17:50;16.40;99.90
37446;DHT22;23307;51.136;14.942;2023-08-06T02:20:16;16.40;99.90
37446;DHT22;23307;51.136;14.942;2023-08-06T02:22:41;16.40;99.90
37446;DHT22;23307;51.136;14.942;2023-08-06T02:25:07;16.40;99.90
37446;DHT22;23307;51.136;14.942;2023-08-06T02:27:33;16.40;99.90
37446;DHT22;23307;51.136;14.942;2023-08-06T02:29:58;16.40;99.90
37446;DHT22;23307;51.136;14.942;2023-08-06T02:32:24;16.40;99.90
37446;DHT22;23307;51.136;14.942;2023-08-06T02:34:49;16.30;99.90
37446;DHT22;23307;51.136;14.942;2023-08-06T02:37:15;16.30;99.90
37446;DHT22;23307;51.136;14.942;2023-08-06T02:39:40;16.30;99.90
37446;DHT22;23307;51.136;14.942;2023-08-06T02:42:07;16.30;99.90
37446;DHT22;23307;51.136;14.942;2023-08-06T02:44:33;16.30;99.90
37446;DHT22;23307;51.136;14.942;2023-08-06T02:46:59;16.30;99.90
37446;DHT22;23307;51.136;14.942;2023-08-06T02:49:24;16.20;99.90
37446;DHT22;23307;51.136;14.942;2023-08-06T02:51:50;16.20;99.90
37446;DHT22;23307;51.136;14.942;2023-08-06T02:54:15;16.20;99.90
37446;DHT22;23307;51.136;14.942;2023-08-06T02:56:43;16.20;99.90
37446;DHT22;23307;51.136;14.942;2023-08-06T02:59:10;16.20;99.90
37446;DHT22;23307;51.136;14.942;2023-08-06T03:01:36;16.20;99.90
37446;DHT22;23307;51.136;14.942;2023-08-06T03:04:02;16.20;99.90
37446;DHT22;23307;51.136;14.942;2023-08-06T03:06:27;16.10;99.90
37446;DHT22;23307;51.136;14.942;2023-08-06T03:08:53;16.10;99.90
37446;DHT22;23307;51.136;14.942;2023-08-06T03:11:18;16.10;99.90
37446;DHT22;23307;51.136;14.942;2023-08-06T03:13:44;16.10;99.90
37446;DHT22;23307;51.136;14.942;2023-08-06T03:16:09;16.10;99.90
37446;DHT22;23307;51.136;14.942;2023-08-06T03:18:35;16.00;99.90
37446;DHT22;23307;51.136;14.942;2023-08-06T03:21:00;16.00;99.90
37446;DHT22;23307;51.136;14.942;2023-08-06T03:23:26;16.00;99.90
37446;DHT22;23307;51.136;14.942;2023-08-06T03:25:52;16.00;99.90
37446;DHT22;23307;51.136;14.942;2023-08-06T03:28:17;15.90;99.90
37446;DHT22;23307;51.136;14.942;2023-08-06T03:30:43;15.90;99.90
37446;DHT22;23307;51.136;14.942;2023-08-06T03:33:08;15.90;99.90
37446;DHT22;23307;51.136;14.942;2023-08-06T03:35:34;15.90;99.90
37446;DHT22;23307;51.136;14.942;2023-08-06T03:37:59;15.90;99.90
37446;DHT22;23307;51.136;14.942;2023-08-06T03:40:25;15.80;99.90
37446;DHT22;23307;51.136;14.942;2023-08-06T03:42:50;15.80;99.90
37446;DHT22;23307;51.136;14.942;2023-08-06T03:45:16;15.90;99.90
37446;DHT22;23307;51.136;14.942;2023-08-06T03:47:41;15.80;99.90
37446;DHT22;23307;51.136;14.942;2023-08-06T03:50:07;15.70;99.90
37446;DHT22;23307;51.136;14.942;2023-08-06T03:52:33;15.80;99.90
37446;DHT22;23307;51.136;14.942;2023-08-06T03:54:58;15.70;99.90
37446;DHT22;23307;51.136;14.942;2023-08-06T03:57:24;15.70;99.90
37446;DHT22;23307;51.136;14.942;2023-08-06T03:59:49;15.70;99.90
37446;DHT22;23307;51.136;14.942;2023-08-06T04:02:15;15.60;99.90
37446;DHT22;23307;51.136;14.942;2023-08-06T04:04:40;15.60;99.90
37446;DHT22;23307;51.136;14.942;2023-08-06T04:07:06;15.70;99.90
37446;DHT22;23307;51.136;14.942;2023-08-06T04:09:31;15.60;99.90
37446;DHT22;23307;51.136;14.942;2023-08-06T04:11:57;15.60;99.90
37446;DHT22;23307;51.136;14.942;2023-08-06T04:14:24;15.60;99.90
37446;DHT22;23307;51.136;14.942;2023-08-06T04:16:51;15.70;99.90
37446;DHT22;23307;51.136;14.942;2023-08-06T04:19:16;15.70;99.90
37446;DHT22;23307;51.136;14.942;2023-08-06T04:21:42;15.70;99.90
37446;DHT22;23307;51.136;14.942;2023-08-06T04:24:07;15.70;99.90
37446;DHT22;23307;51.136;14.942;2023-08-06T04:26:33;15.60;99.90
37446;DHT22;23307;51.136;14.942;2023-08-06T04:28:58;15.60;99.90
37446;DHT22;23307;51.136;14.942;2023-08-06T04:31:24;15.60;99.90
37446;DHT22;23307;51.136;14.942;2023-08-06T04:33:49;15.60;99.90
37446;DHT22;23307;51.136;14.942;2023-08-06T04:36:15;15.60;99.90
37446;DHT22;23307;51.136;14.942;2023-08-06T04:38:41;15.60;99.90
37446;DHT22;23307;51.136;14.942;2023-08-06T04:41:10;15.60;99.90
37446;DHT22;23307;51.136;14.942;2023-08-06T04:43:36;15.60;99.90
37446;DHT22;23307;51.136;14.942;2023-08-06T04:46:01;15.60;99.90
37446;DHT22;23307;51.136;14.942;2023-08-06T04:48:27;15.60;99.90
37446;DHT22;23307;51.136;14.942;2023-08-06T04:50:52;15.60;99.90
37446;DHT22;23307;51.136;14.942;2023-08-06T04:53:18;15.60;99.90
37446;DHT22;23307;51.136;14.942;2023-08-06T04:55:43;15.50;99.90
37446;DHT22;23307;51.136;14.942;2023-08-06T04:58:10;15.50;99.90
37446;DHT22;23307;51.136;14.942;2023-08-06T05:00:35;15.50;99.90
37446;DHT22;23307;51.136;14.942;2023-08-06T05:03:01;15.40;99.90
37446;DHT22;23307;51.136;14.942;2023-08-06T05:05:27;15.40;99.90
37446;DHT22;23307;51.136;14.942;2023-08-06T05:07:55;15.40;99.90
37446;DHT22;23307;51.136;14.942;2023-08-06T05:10:21;15.30;99.90
37446;DHT22;23307;51.136;14.942;2023-08-06T05:12:47;15.30;99.90
37446;DHT22;23307;51.136;14.942;2023-08-06T05:15:12;15.30;99.90
37446;DHT22;23307;51.136;14.942;2023-08-06T05:17:38;15.30;99.90
37446;DHT22;23307;51.136;14.942;2023-08-06T05:20:03;15.30;99.90
37446;DHT22;23307;51.136;14.942;2023-08-06T05:22:29;15.40;99.90
37446;DHT22;23307;51.136;14.942;2023-08-06T05:24:55;15.30;99.90
37446;DHT22;23307;51.136;14.942;2023-08-06T05:27:20;15.40;99.90
37446;DHT22;23307;51.136;14.942;2023-08-06T05:29:47;15.40;99.90
37446;DHT22;23307;51.136;14.942;2023-08-06T05:32:13;15.40;99.90
37446;DHT22;23307;51.136;14.942;2023-08-06T05:34:38;15.40;99.90
37446;DHT22;23307;51.136;14.942;2023-08-06T05:37:04;15.50;99.90
37446;DHT22;23307;51.136;14.942;2023-08-06T05:39:30;15.50;99.90
37446;DHT22;23307;51.136;14.942;2023-08-06T05:41:55;15.50;99.90
37446;DHT22;23307;51.136;14.942;2023-08-06T05:44:22;15.60;99.90
37446;DHT22;23307;51.136;14.942;2023-08-06T05:46:49;15.60;99.90
37446;DHT22;23307;51.136;14.942;2023-08-06T05:49:15;15.60;99.90
37446;DHT22;23307;51.136;14.942;2023-08-06T05:51:41;15.60;99.90
37446;DHT22;23307;51.136;14.942;2023-08-06T05:54:06;15.60;99.90
37446;DHT22;23307;51.136;14.942;2023-08-06T05:56:32;15.60;99.90
37446;DHT22;23307;51.136;14.942;2023-08-06T05:58:57;15.60;99.90
37446;DHT22;23307;51.136;14.942;2023-08-06T06:01:23;15.60;99.90
37446;DHT22;23307;51.136;14.942;2023-08-06T06:03:49;15.60;99.90
37446;DHT22;23307;51.136;14.942;2023-08-06T06:06:14;15.60;99.90
37446;DHT22;23307;51.136;14.942;2023-08-06T06:08:40;15.60;99.90
37446;DHT22;23307;51.136;14.942;2023-08-06T06:11:05;15.70;99.90
37446;DHT22;23307;51.136;14.942;2023-08-06T06:13:31;15.70;99.90
37446;DHT22;23307;51.136;14.942;2023-08-06T06:15:56;15.70;99.90
37446;DHT22;23307;51.136;14.942;2023-08-06T06:18:22;15.70;99.90
37446;DHT22;23307;51.136;14.942;2023-08-06T06:20:48;15.70;99.90
37446;DHT22;23307;51.136;14.942;2023-08-06T06:23:13;15.70;99.90
37446;DHT22;23307;51.136;14.942;2023-08-06T06:25:47;15.70;99.90
37446;DHT22;23307;51.136;14.942;2023-08-06T06:28:13;15.70;99.90
37446;DHT22;23307;51.136;14.942;2023-08-06T06:30:40;15.70;99.90
37446;DHT22;23307;51.136;14.942;2023-08-06T06:33:06;15.70;99.90
37446;DHT22;23307;51.136;14.942;2023-08-06T06:35:31;15.80;99.90
37446;DHT22;23307;51.136;14.942;2023-08-06T06:37:57;15.70;99.90
37446;DHT22;23307;51.136;14.942;2023-08-06T06:40:22;15.70;99.90
37446;DHT22;23307;51.136;14.942;2023-08-06T06:42:48;15.80;99.90
37446;DHT22;23307;51.136;14.942;2023-08-06T06:45:13;15.80;99.90
37446;DHT22;23307;51.136;14.942;2023-08-06T06:47:39;15.80;99.90
37446;DHT22;23307;51.136;14.942;2023-08-06T06:50:05;15.80;99.90
37446;DHT22;23307;51.136;14.942;2023-08-06T06:52:31;15.80;99.90
37446;DHT22;23307;51.136;14.942;2023-08-06T06:54:56;15.80;99.90
37446;DHT22;23307;51.136;14.942;2023-08-06T06:57:22;15.80;99.90
37446;DHT22;23307;51.136;14.942;2023-08-06T06:59:47;15.90;99.90
37446;DHT22;23307;51.136;14.942;2023-08-06T07:02:13;15.80;99.90
37446;DHT22;23307;51.136;14.942;2023-08-06T07:04:38;15.90;99.90
37446;DHT22;23307;51.136;14.942;2023-08-06T07:07:04;15.90;99.90
37446;DHT22;23307;51.136;14.942;2023-08-06T07:09:30;15.90;99.90
37446;DHT22;23307;51.136;14.942;2023-08-06T07:11:55;15.90;99.90
37446;DHT22;23307;51.136;14.942;2023-08-06T07:14:21;15.90;99.90
37446;DHT22;23307;51.136;14.942;2023-08-06T07:16:46;16.00;99.90
37446;DHT22;23307;51.136;14.942;2023-08-06T07:19:12;16.00;99.90
37446;DHT22;23307;51.136;14.942;2023-08-06T07:21:37;16.10;99.90
37446;DHT22;23307;51.136;14.942;2023-08-06T07:24:03;16.10;99.90
37446;DHT22;23307;51.136;14.942;2023-08-06T07:26:28;16.10;99.90
37446;DHT22;23307;51.136;14.942;2023-08-06T07:28:54;16.10;99.90
37446;DHT22;23307;51.136;14.942;2023-08-06T07:31:20;16.10;99.90
37446;DHT22;23307;51.136;14.942;2023-08-06T07:33:45;16.10;99.90
37446;DHT22;23307;51.136;14.942;2023-08-06T07:36:12;16.20;99.90
37446;DHT22;23307;51.136;14.942;2023-08-06T07:38:38;16.20;99.90
37446;DHT22;23307;51.136;14.942;2023-08-06T07:41:04;16.30;99.90
37446;DHT22;23307;51.136;14.942;2023-08-06T07:43:30;16.30;99.90
37446;DHT22;23307;51.136;14.942;2023-08-06T07:45:59;16.30;99.90
37446;DHT22;23307;51.136;14.942;2023-08-06T07:48:28;16.30;99.90
37446;DHT22;23307;51.136;14.942;2023-08-06T07:50:54;16.30;99.90
37446;DHT22;23307;51.136;14.942;2023-08-06T07:53:21;16.30;99.90
37446;DHT22;23307;51.136;14.942;2023-08-06T07:55:51;16.30;99.90
37446;DHT22;23307;51.136;14.942;2023-08-06T07:58:17;16.20;99.90
37446;DHT22;23307;51.136;14.942;2023-08-06T08:00:43;16.30;99.90
37446;DHT22;23307;51.136;14.942;2023-08-06T08:03:11;16.30;99.90
37446;DHT22;23307;51.136;14.942;2023-08-06T08:05:40;16.30;99.90
37446;DHT22;23307;51.136;14.942;2023-08-06T08:08:06;16.30;99.90
37446;DHT22;23307;51.136;14.942;2023-08-06T08:10:32;16.30;99.90
37446;DHT22;23307;51.136;14.942;2023-08-06T08:12:58;16.30;99.90
37446;DHT22;23307;51.136;14.942;2023-08-06T08:15:24;16.30;99.90
37446;DHT22;23307;51.136;14.942;2023-08-06T08:17:52;16.30;99.90
37446;DHT22;23307;51.136;14.942;2023-08-06T08:20:17;16.30;99.90
37446;DHT22;23307;51.136;14.942;2023-08-06T08:22:43;16.30;99.90
37446;DHT22;23307;51.136;14.942;2023-08-06T08:25:09;16.30;99.90
37446;DHT22;23307;51.136;14.942;2023-08-06T08:27:34;16.30;99.90
37446;DHT22;23307;51.136;14.942;2023-08-06T08:30:00;16.40;99.90
37446;DHT22;23307;51.136;14.942;2023-08-06T08:32:25;16.40;99.90
37446;DHT22;23307;51.136;14.942;2023-08-06T08:34:51;16.50;99.90
37446;DHT22;23307;51.136;14.942;2023-08-06T08:37:16;16.50;99.90
37446;DHT22;23307;51.136;14.942;2023-08-06T08:39:42;16.50;99.90
37446;DHT22;23307;51.136;14.942;2023-08-06T08:42:09;16.50;99.90
37446;DHT22;23307;51.136;14.942;2023-08-06T08:44:36;16.60;99.90
37446;DHT22;23307;51.136;14.942;2023-08-06T08:47:06;16.60;99.90
37446;DHT22;23307;51.136;14.942;2023-08-06T08:49:32;16.50;99.90
37446;DHT22;23307;51.136;14.942;2023-08-06T08:51:59;16.50;99.90
37446;DHT22;23307;51.136;14.942;2023-08-06T08:54:27;16.50;99.90
37446;DHT22;23307;51.136;14.942;2023-08-06T08:56:54;16.60;99.90
37446;DHT22;23307;51.136;14.942;2023-08-06T08:59:20;16.60;99.90
37446;DHT22;23307;51.136;14.942;2023-08-06T09:01:47;16.60;99.90
37446;DHT22;23307;51.136;14.942;2023-08-06T09:04:16;16.70;99.90
37446;DHT22;23307;51.136;14.942;2023-08-06T09:06:43;16.70;99.90
37446;DHT22;23307;51.136;14.942;2023-08-06T09:09:13;16.70;99.90
37446;DHT22;23307;51.136;14.942;2023-08-06T09:11:43;16.70;99.90
37446;DHT22;23307;51.136;14.942;2023-08-06T09:14:09;16.50;99.90
37446;DHT22;23307;51.136;14.942;2023-08-06T09:16:36;16.50;99.90
37446;DHT22;23307;51.136;14.942;2023-08-06T09:19:12;16.50;99.90
37446;DHT22;23307;51.136;14.942;2023-08-06T09:21:41;16.50;99.90
37446;DHT22;23307;51.136;14.942;2023-08-06T09:24:11;16.50;99.90
37446;DHT22;23307;51.136;14.942;2023-08-06T09:26:38;16.40;99.90
37446;DHT22;23307;51.136;14.942;2023-08-06T09:29:08;16.40;99.90
37446;DHT22;23307;51.136;14.942;2023-08-06T09:31:48;16.40;99.90
37446;DHT22;23307;51.136;14.942;2023-08-06T09:34:18;16.30;99.90
37446;DHT22;23307;51.136;14.942;2023-08-06T09:36:47;16.40;99.90
37446;DHT22;23307;51.136;14.942;2023-08-06T09:39:14;16.40;99.90
37446;DHT22;23307;51.136;14.942;2023-08-06T09:41:40;16.40;99.90
37446;DHT22;23307;51.136;14.942;2023-08-06T09:44:17;16.30;99.90
37446;DHT22;23307;51.136;14.942;2023-08-06T09:46:47;16.30;99.90
37446;DHT22;23307;51.136;14.942;2023-08-06T09:49:13;16.30;99.90
37446;DHT22;23307;51.136;14.942;2023-08-06T09:51:39;16.30;99.90
37446;DHT22;23307;51.136;14.942;2023-08-06T09:54:06;16.40;99.90
37446;DHT22;23307;51.136;14.942;2023-08-06T09:56:33;16.40;99.90
37446;DHT22;23307;51.136;14.942;2023-08-06T09:59:04;16.40;99.90
37446;DHT22;23307;51.136;14.942;2023-08-06T10:01:33;16.30;99.90
37446;DHT22;23307;51.136;14.942;2023-08-06T10:04:00;16.40;99.90
37446;DHT22;23307;51.136;14.942;2023-08-06T10:06:26;16.40;99.90
37446;DHT22;23307;51.136;14.942;2023-08-06T10:08:53;16.40;99.90
37446;DHT22;23307;51.136;14.942;2023-08-06T10:11:22;16.40;99.90
37446;DHT22;23307;51.136;14.942;2023-08-06T10:13:50;16.40;99.90
37446;DHT22;23307;51.136;14.942;2023-08-06T10:16:18;16.40;99.90
37446;DHT22;23307;51.136;14.942;2023-08-06T10:18:45;16.40;99.90
37446;DHT22;23307;51.136;14.942;2023-08-06T10:21:12;16.40;99.90
37446;DHT22;23307;51.136;14.942;2023-08-06T10:23:40;16.50;99.90
37446;DHT22;23307;51.136;14.942;2023-08-06T10:26:06;16.50;99.90
37446;DHT22;23307;51.136;14.942;2023-08-06T10:28:39;16.60;99.90
37446;DHT22;23307;51.136;14.942;2023-08-06T10:31:05;16.60;99.90
37446;DHT22;23307;51.136;14.942;2023-08-06T10:33:49;16.50;99.90
37446;DHT22;23307;51.136;14.942;2023-08-06T10:36:15;16.50;99.90
37446;DHT22;23307;51.136;14.942;2023-08-06T10:38:48;16.50;99.90
37446;DHT22;23307;51.136;14.942;2023-08-06T10:41:27;16.50;99.90
37446;DHT22;23307;51.136;14.942;2023-08-06T10:44:09;16.50;99.90
37446;DHT22;23307;51.136;14.942;2023-08-06T10:46:35;16.40;99.90
37446;DHT22;23307;51.136;14.942;2023-08-06T10:49:01;16.40;99.90
37446;DHT22;23307;51.136;14.942;2023-08-06T10:51:27;16.40;99.90
37446;DHT22;23307;51.136;14.942;2023-08-06T10:53:53;16.40;99.90
37446;DHT22;23307;51.136;14.942;2023-08-06T10:56:23;16.40;99.90
37446;DHT22;23307;51.136;14.942;2023-08-06T10:58:53;16.40;99.90
37446;DHT22;23307;51.136;14.942;2023-08-06T11:01:18;16.40;99.90
37446;DHT22;23307;51.136;14.942;2023-08-06T11:03:45;16.40;99.90
37446;DHT22;23307;51.136;14.942;2023-08-06T11:06:17;16.40;99.90
37446;DHT22;23307;51.136;14.942;2023-08-06T11:08:48;16.50;99.90
37446;DHT22;23307;51.136;14.942;2023-08-06T11:11:14;16.50;99.90
37446;DHT22;23307;51.136;14.942;2023-08-06T11:13:44;16.50;99.90
37446;DHT22;23307;51.136;14.942;2023-08-06T11:16:18;16.50;99.90
37446;DHT22;23307;51.136;14.942;2023-08-06T11:18:44;16.50;99.90
37446;DHT22;23307;51.136;14.942;2023-08-06T11:21:10;16.60;99.90
37446;DHT22;23307;51.136;14.942;2023-08-06T11:23:37;16.70;99.90
37446;DHT22;23307;51.136;14.942;2023-08-06T11:26:04;16.70;99.90
37446;DHT22;23307;51.136;14.942;2023-08-06T11:28:30;16.80;99.90
37446;DHT22;23307;51.136;14.942;2023-08-06T11:30:55;16.90;99.90
37446;DHT22;23307;51.136;14.942;2023-08-06T11:33:25;17.00;99.90
37446;DHT22;23307;51.136;14.942;2023-08-06T11:35:52;17.00;99.90
37446;DHT22;23307;51.136;14.942;2023-08-06T11:38:17;17.10;99.90
37446;DHT22;23307;51.136;14.942;2023-08-06T11:40:50;17.10;99.90
37446;DHT22;23307;51.136;14.942;2023-08-06T11:43:18;17.10;99.90
37446;DHT22;23307;51.136;14.942;2023-08-06T11:45:44;17.10;99.90
37446;DHT22;23307;51.136;14.942;2023-08-06T11:48:09;17.10;99.90
37446;DHT22;23307;51.136;14.942;2023-08-06T11:50:38;17.10;99.90
37446;DHT22;23307;51.136;14.942;2023-08-06T11:53:06;17.10;99.90
37446;DHT22;23307;51.136;14.942;2023-08-06T11:55:32;17.00;99.90
37446;DHT22;23307;51.136;14.942;2023-08-06T11:58:02;17.00;99.90
37446;DHT22;23307;51.136;14.942;2023-08-06T12:00:29;16.90;99.90
37446;DHT22;23307;51.136;14.942;2023-08-06T12:02:56;16.90;99.90
37446;DHT22;23307;51.136;14.942;2023-08-06T12:05:23;16.90;99.90
37446;DHT22;23307;51.136;14.942;2023-08-06T12:07:56;16.90;99.90
37446;DHT22;23307;51.136;14.942;2023-08-06T12:10:24;16.90;99.90
37446;DHT22;23307;51.136;14.942;2023-08-06T12:12:50;16.90;99.90
37446;DHT22;23307;51.136;14.942;2023-08-06T12:15:15;16.90;99.90
37446;DHT22;23307;51.136;14.942;2023-08-06T12:17:41;16.80;99.90
37446;DHT22;23307;51.136;14.942;2023-08-06T12:20:08;16.80;99.90
37446;DHT22;23307;51.136;14.942;2023-08-06T12:22:34;16.80;99.90
37446;DHT22;23307;51.136;14.942;2023-08-06T12:25:01;16.80;99.90
37446;DHT22;23307;51.136;14.942;2023-08-06T12:27:28;16.80;99.90
37446;DHT22;23307;51.136;14.942;2023-08-06T12:29:54;16.80;99.90
37446;DHT22;23307;51.136;14.942;2023-08-06T12:32:19;16.80;99.90
37446;DHT22;23307;51.136;14.942;2023-08-06T12:34:45;16.80;99.90
37446;DHT22;23307;51.136;14.942;2023-08-06T12:37:11;16.90;99.90
37446;DHT22;23307;51.136;14.942;2023-08-06T12:39:37;16.90;99.90
37446;DHT22;23307;51.136;14.942;2023-08-06T12:42:04;17.00;99.90
37446;DHT22;23307;51.136;14.942;2023-08-06T12:44:30;16.90;99.90
37446;DHT22;23307;51.136;14.942;2023-08-06T12:46:56;17.00;99.90
37446;DHT22;23307;51.136;14.942;2023-08-06T12:49:22;17.10;99.90
37446;DHT22;23307;51.136;14.942;2023-08-06T12:51:48;17.00;99.90
37446;DHT22;23307;51.136;14.942;2023-08-06T12:54:15;17.00;99.90
37446;DHT22;23307;51.136;14.942;2023-08-06T12:56:41;17.00;99.90
37446;DHT22;23307;51.136;14.942;2023-08-06T12:59:07;17.00;99.90
37446;DHT22;23307;51.136;14.942;2023-08-06T13:01:32;17.00;99.90
37446;DHT22;23307;51.136;14.942;2023-08-06T13:03:59;17.10;99.90
37446;DHT22;23307;51.136;14.942;2023-08-06T13:06:24;17.00;99.90
37446;DHT22;23307;51.136;14.942;2023-08-06T13:08:50;17.00;99.90
37446;DHT22;23307;51.136;14.942;2023-08-06T13:11:15;17.00;99.90
37446;DHT22;23307;51.136;14.942;2023-08-06T13:13:41;17.10;99.90
37446;DHT22;23307;51.136;14.942;2023-08-06T13:16:07;17.00;99.90
37446;DHT22;23307;51.136;14.942;2023-08-06T13:18:32;17.00;99.90
37446;DHT22;23307;51.136;14.942;2023-08-06T13:20:58;17.00;99.90
37446;DHT22;23307;51.136;14.942;2023-08-06T13:23:23;17.10;99.90
37446;DHT22;23307;51.136;14.942;2023-08-06T13:25:49;17.10;99.90
37446;DHT22;23307;51.136;14.942;2023-08-06T13:28:14;17.10;99.90
37446;DHT22;23307;51.136;14.942;2023-08-06T13:30:40;17.10;99.90
37446;DHT22;23307;51.136;14.942;2023-08-06T13:33:09;17.00;99.90
37446;DHT22;23307;51.136;14.942;2023-08-06T13:35:35;16.90;99.90
37446;DHT22;23307;51.136;14.942;2023-08-06T13:38:01;16.90;99.90
37446;DHT22;23307;51.136;14.942;2023-08-06T13:40:32;16.90;99.90
37446;DHT22;23307;51.136;14.942;2023-08-06T13:42:57;16.90;99.90
37446;DHT22;23307;51.136;14.942;2023-08-06T13:45:23;16.90;99.90
37446;DHT22;23307;51.136;14.942;2023-08-06T13:47:49;17.00;99.90
37446;DHT22;23307;51.136;14.942;2023-08-06T13:50:14;17.10;99.90
37446;DHT22;23307;51.136;14.942;2023-08-06T13:52:40;17.00;99.90
37446;DHT22;23307;51.136;14.942;2023-08-06T13:55:06;17.00;99.90
37446;DHT22;23307;51.136;14.942;2023-08-06T13:57:33;17.00;99.90
37446;DHT22;23307;51.136;14.942;2023-08-06T13:59:59;17.00;99.90
37446;DHT22;23307;51.136;14.942;2023-08-06T14:02:24;17.00;99.90
37446;DHT22;23307;51.136;14.942;2023-08-06T14:04:51;16.90;99.90
37446;DHT22;23307;51.136;14.942;2023-08-06T14:07:17;17.00;99.90
37446;DHT22;23307;51.136;14.942;2023-08-06T14:09:43;17.00;99.90
37446;DHT22;23307;51.136;14.942;2023-08-06T14:12:09;17.10;99.90
37446;DHT22;23307;51.136;14.942;2023-08-06T14:14:35;17.10;99.90
37446;DHT22;23307;51.136;14.942;2023-08-06T14:17:01;17.10;99.90
37446;DHT22;23307;51.136;14.942;2023-08-06T14:19:27;17.00;99.90
37446;DHT22;23307;51.136;14.942;2023-08-06T14:21:52;17.00;99.90
37446;DHT22;23307;51.136;14.942;2023-08-06T14:24:18;17.00;99.90
37446;DHT22;23307;51.136;14.942;2023-08-06T14:26:44;17.00;99.90
37446;DHT22;23307;51.136;14.942;2023-08-06T14:29:09;17.00;99.90
37446;DHT22;23307;51.136;14.942;2023-08-06T14:31:35;17.00;99.90
37446;DHT22;23307;51.136;14.942;2023-08-06T14:34:01;17.00;99.90
37446;DHT22;23307;51.136;14.942;2023-08-06T14:36:26;17.10;99.90
37446;DHT22;23307;51.136;14.942;2023-08-06T14:38:52;17.10;99.90
37446;DHT22;23307;51.136;14.942;2023-08-06T14:41:18;17.10;99.90
37446;DHT22;23307;51.136;14.942;2023-08-06T14:43:43;17.10;99.90
37446;DHT22;23307;51.136;14.942;2023-08-06T14:46:09;17.20;99.90
37446;DHT22;23307;51.136;14.942;2023-08-06T14:48:34;17.20;99.90
37446;DHT22;23307;51.136;14.942;2023-08-06T14:51:00;17.20;99.90
37446;DHT22;23307;51.136;14.942;2023-08-06T14:53:26;17.10;99.90
37446;DHT22;23307;51.136;14.942;2023-08-06T14:55:52;17.10;99.90
37446;DHT22;23307;51.136;14.942;2023-08-06T14:58:17;17.10;99.90
37446;DHT22;23307;51.136;14.942;2023-08-06T15:00:44;17.10;99.90
37446;DHT22;23307;51.136;14.942;2023-08-06T15:03:09;17.10;99.90
37446;DHT22;23307;51.136;14.942;2023-08-06T15:05:35;17.10;99.90
37446;DHT22;23307;51.136;14.942;2023-08-06T15:08:00;17.20;99.90
37446;DHT22;23307;51.136;14.942;2023-08-06T15:10:26;17.30;99.90
37446;DHT22;23307;51.136;14.942;2023-08-06T15:12:52;17.30;99.90
37446;DHT22;23307;51.136;14.942;2023-08-06T15:15:17;17.30;99.90